Terminal Aerodrome Forecast
Issued by NWS

Home | Current Version | Previous Version | Text Only | Print | Product List | Glossary On
Versions: 1 2 3 4 5 6 7 8 9 10 11 12 13 14 15
000
FTUS43 KIND 170757 AAA
TAFHUF
TAF AMD
KHUF 170757Z 1708/1806 20007KT P6SM -RA VCTS FEW016 BKN035CB
     FM171100 19006KT 4SM BR VCTS OVC050CB
     FM171200 20006KT P6SM VCTS BKN060CB
     FM171500 22009KT P6SM -SHRA VCTS BKN090CB
     FM172300 25008KT P6SM VCTS SCT200CB=

USA.gov is the U.S. government's official web portal to all federal, state and local government web resources and services.